Sealady — 9HA4184 — position and weather

sailwx.info

Track history (hours):
 
Tides and Currents Weather Stations Pressure Air Temp Water Temp Dewpoint Dewpoint Depression Visibility Wind Speed Wind Dir Waves Ship Positions

Sealady

Last reported at 2017-Nov-05 16:56 UTC. Time now 2017-Nov-19 05:04 UTC.
Position S 29°49' E 031°24'.
Warning: this ship's position is 13 days out of date.

Length 200 m; draft 12.9 m.

Type: Cargo ship. MMSI: 249284000.

Date/timePositionNaut miles runAvg speedWind from/ knotsBaromVisibWave heightAir tempDewpointWater temp
2017-Nov-05 16:56S 29°49' E 031°24'512.5
2017-Nov-05 16:31S 29°52' E 031°18'611.7
2017-Nov-05 16:00S 29°53' E 031°12'2 4.0
2017-Nov-05 15:31S 29°55' E 031°10'611.5
2017-Nov-05 15:00S 30°00' E 031°08'714.0
2017-Nov-05 14:31S 30°07' E 031°05'713.6
2017-Nov-05 14:00S 30°13' E 031°02'612.7
2017-Nov-05 13:30S 30°19' E 030°59'1011.2
2017-Nov-05 12:36S 30°28' E 030°53'  
Track history (hours):
 
Tides and Currents Weather Stations Pressure Air Temp Water Temp Dewpoint Dewpoint Depression Visibility Wind Speed Wind Dir Waves Ship Positions

Sealady

Last reported at 2017-Nov-05 16:56 UTC. Time now 2017-Nov-19 05:04 UTC.
Position S 29°49' E 031°24'.
Warning: this ship's position is 13 days out of date.

Length 200 m; draft 12.9 m.

Type: Cargo ship. MMSI: 249284000.

Date/timePositionNaut miles runAvg speedWind from/ knotsBaromVisibWave heightAir tempDewpointWater temp
2017-Nov-05 16:56S 29°49' E 031°24'512.5
2017-Nov-05 16:31S 29°52' E 031°18'611.7
2017-Nov-05 16:00S 29°53' E 031°12'2 4.0
2017-Nov-05 15:31S 29°55' E 031°10'611.5
2017-Nov-05 15:00S 30°00' E 031°08'714.0
2017-Nov-05 14:31S 30°07' E 031°05'713.6
2017-Nov-05 14:00S 30°13' E 031°02'612.7
2017-Nov-05 13:30S 30°19' E 030°59'1011.2
2017-Nov-05 12:36S 30°28' E 030°53'  

Dump ship's entire track history